Warszawa, Polen

01:02 AM CEST on September 25, 2017 (GMT +0200)
Dębe Wielkie | | Change Station

Elev 404 ft 52.20 °N, 21.45 °E | Updated 5 seconds ago

Molnigt
Molnigt
53.2 °F
Feels Like 53.2 °F
N
2.9
Vind Växlande Vind from O/NO
Gusts 4.9 miles/tim

Idag
High -- | Low -- °F
--% Chance of Precip.
Yesterday
High -- | Low -- °F
Precip. -- tum
Lufttryck 30.21 tum
Sikt 6.2 miles
Molnigt Mestadels molnigt 1000 ft
Molnigt 1700 ft
Daggpunkt 51 °F
Luftfuktighet 93%
Rainfall 0.00 tum
Snow Depth Not available.
6:24 AM 6:24 PM
Första kvarteret, 22% visible
METAR EPWA 242230Z 08011KT 9999 -RA BKN010 OVC017 13/11 Q1023 NOSIG
Lufttryck 30.21 tum
Sikt 6.2 miles
Molnigt Mestadels molnigt 1000 ft
Molnigt 1700 ft
Daggpunkt 51 °F
Luftfuktighet 93%
Rainfall 0.00 tum
Snow Depth Not available.
6:24 AM 6:24 PM
Första kvarteret, 22% visible
METAR EPWA 242230Z 08011KT 9999 -RA BKN010 OVC017 13/11 Q1023 NOSIG

Get Severe Weather Alerts

Thanks for signing up!

Be on the lookout for a verification email in your inbox.

You'll start receiving the daily forecast at 6 AM.

×

10-Day Weather Forecast

×

Almanac

Astronomi

Sep. 25, 2017 Rise Set
Actual Time
Civil Twilight
Nautical Twilight
Astronomical Twilight
Månen
Length Of Visible Light
Dagens längd
Tomorrow will be .
, % of the Moon is Illuminated

Today's Extremes

Country Highs Country Lows

Community

WunderPhotos

Category 6

Welcome to Category 6. This is the collective home for Weather Underground's featured writeups by Dr. Jeff Masters (right), Bob Henson (left), Chris Burt, and other regular contributors.

Nearby

Air Quality

  Air Quality AQ Index Pollutant
Not available.

Snödjup

Station Depth Elevation

Earthquake Activity

Stad Distance Mag. Time & Date
Minimum magnitude displayed is 2.5.

Coastal Water Temperatures

Plats Temperatur

Stations

Nearby Weather Stations

Station Location Temp Vindavkylning Daggpunkt Luftfuktighet Vind Precip. Elev Uppdaterad Type